sensor_id;sensor_type;location;lat;lon;timestamp;pressure;altitude;pressure_sealevel;temperature;humidity
13695;BME280;6919;52.344;14.518;2022-12-08T00:01:56;100023.97;;;3.17;100.00
13695;BME280;6919;52.344;14.518;2022-12-08T00:04:25;100027.19;;;3.20;100.00
13695;BME280;6919;52.344;14.518;2022-12-08T00:06:55;100025.88;;;3.26;100.00
13695;BME280;6919;52.344;14.518;2022-12-08T00:09:41;100028.78;;;3.23;100.00
13695;BME280;6919;52.344;14.518;2022-12-08T00:12:11;100023.59;;;3.21;100.00
13695;BME280;6919;52.344;14.518;2022-12-08T00:14:43;100036.72;;;3.34;100.00
13695;BME280;6919;52.344;14.518;2022-12-08T00:17:14;100018.16;;;3.34;100.00
13695;BME280;6919;52.344;14.518;2022-12-08T00:19:43;100025.13;;;3.35;100.00
13695;BME280;6919;52.344;14.518;2022-12-08T00:22:13;100026.44;;;3.40;100.00
13695;BME280;6919;52.344;14.518;2022-12-08T00:24:43;100017.34;;;3.00;100.00
13695;BME280;6919;52.344;14.518;2022-12-08T00:27:15;100017.47;;;2.98;100.00
13695;BME280;6919;52.344;14.518;2022-12-08T00:29:44;100020.47;;;3.05;100.00
13695;BME280;6919;52.344;14.518;2022-12-08T00:32:12;100012.88;;;3.00;100.00
13695;BME280;6919;52.344;14.518;2022-12-08T00:34:41;100004.56;;;3.05;100.00
13695;BME280;6919;52.344;14.518;2022-12-08T00:37:09;100010.50;;;3.08;100.00
13695;BME280;6919;52.344;14.518;2022-12-08T00:39:39;100009.28;;;3.01;100.00
13695;BME280;6919;52.344;14.518;2022-12-08T00:42:07;100013.72;;;3.12;100.00
13695;BME280;6919;52.344;14.518;2022-12-08T00:44:43;100009.59;;;3.30;100.00
13695;BME280;6919;52.344;14.518;2022-12-08T00:47:13;100013.59;;;3.25;100.00
13695;BME280;6919;52.344;14.518;2022-12-08T00:49:48;100016.09;;;3.37;100.00
13695;BME280;6919;52.344;14.518;2022-12-08T00:52:16;100021.03;;;3.42;100.00
13695;BME280;6919;52.344;14.518;2022-12-08T00:54:45;100015.13;;;3.49;100.00
13695;BME280;6919;52.344;14.518;2022-12-08T00:57:13;100016.59;;;3.42;100.00
13695;BME280;6919;52.344;14.518;2022-12-08T00:59:42;100016.34;;;3.45;100.00
13695;BME280;6919;52.344;14.518;2022-12-08T01:02:10;100023.06;;;3.49;100.00
13695;BME280;6919;52.344;14.518;2022-12-08T01:04:38;100013.41;;;3.48;100.00
13695;BME280;6919;52.344;14.518;2022-12-08T01:07:07;100017.78;;;3.49;100.00
13695;BME280;6919;52.344;14.518;2022-12-08T01:09:36;100016.19;;;3.47;100.00
13695;BME280;6919;52.344;14.518;2022-12-08T01:12:07;100011.50;;;3.50;100.00
13695;BME280;6919;52.344;14.518;2022-12-08T01:14:36;100011.34;;;3.63;100.00
13695;BME280;6919;52.344;14.518;2022-12-08T01:17:04;100013.16;;;3.62;100.00
13695;BME280;6919;52.344;14.518;2022-12-08T01:19:32;100019.91;;;3.55;100.00
13695;BME280;6919;52.344;14.518;2022-12-08T01:22:01;100020.56;;;3.79;100.00
13695;BME280;6919;52.344;14.518;2022-12-08T01:24:29;100007.81;;;3.73;100.00
13695;BME280;6919;52.344;14.518;2022-12-08T01:26:57;100013.41;;;3.59;100.00
13695;BME280;6919;52.344;14.518;2022-12-08T01:29:27;100014.88;;;3.52;100.00
13695;BME280;6919;52.344;14.518;2022-12-08T01:31:55;100021.50;;;3.47;100.00
13695;BME280;6919;52.344;14.518;2022-12-08T01:34:23;100027.41;;;3.50;100.00
13695;BME280;6919;52.344;14.518;2022-12-08T01:36:51;100024.34;;;3.66;100.00
13695;BME280;6919;52.344;14.518;2022-12-08T01:39:20;100019.34;;;3.52;100.00
13695;BME280;6919;52.344;14.518;2022-12-08T01:41:48;100020.19;;;3.41;100.00
13695;BME280;6919;52.344;14.518;2022-12-08T01:44:57;100016.94;;;3.49;100.00
13695;BME280;6919;52.344;14.518;2022-12-08T01:47:33;100020.66;;;3.46;100.00
13695;BME280;6919;52.344;14.518;2022-12-08T01:50:05;100015.25;;;3.48;100.00
13695;BME280;6919;52.344;14.518;2022-12-08T01:52:38;100011.63;;;3.49;100.00
13695;BME280;6919;52.344;14.518;2022-12-08T01:55:14;100010.78;;;3.48;100.00
13695;BME280;6919;52.344;14.518;2022-12-08T01:57:47;100012.88;;;3.23;100.00
13695;BME280;6919;52.344;14.518;2022-12-08T02:00:20;100007.09;;;3.40;100.00
13695;BME280;6919;52.344;14.518;2022-12-08T02:02:56;100003.59;;;3.39;100.00
13695;BME280;6919;52.344;14.518;2022-12-08T02:05:28;99999.25;;;3.38;100.00
13695;BME280;6919;52.344;14.518;2022-12-08T02:07:59;100000.44;;;3.34;100.00
13695;BME280;6919;52.344;14.518;2022-12-08T02:10:35;99996.34;;;3.41;100.00
13695;BME280;6919;52.344;14.518;2022-12-08T02:13:08;100002.16;;;3.35;100.00
13695;BME280;6919;52.344;14.518;2022-12-08T02:15:52;99987.03;;;3.47;100.00
13695;BME280;6919;52.344;14.518;2022-12-08T02:18:49;99997.31;;;3.40;100.00
13695;BME280;6919;52.344;14.518;2022-12-08T02:21:53;99989.59;;;3.37;100.00
13695;BME280;6919;52.344;14.518;2022-12-08T02:24:36;99984.56;;;3.45;100.00
13695;BME280;6919;52.344;14.518;2022-12-08T02:27:39;99979.38;;;3.44;100.00
13695;BME280;6919;52.344;14.518;2022-12-08T02:30:17;99990.31;;;3.50;100.00
13695;BME280;6919;52.344;14.518;2022-12-08T02:33:40;99980.03;;;3.57;100.00
13695;BME280;6919;52.344;14.518;2022-12-08T02:36:15;99976.81;;;3.53;100.00
13695;BME280;6919;52.344;14.518;2022-12-08T02:38:56;99967.38;;;3.60;100.00
13695;BME280;6919;52.344;14.518;2022-12-08T02:41:38;99973.78;;;3.58;100.00
13695;BME280;6919;52.344;14.518;2022-12-08T02:44:17;99977.50;;;3.55;100.00
13695;BME280;6919;52.344;14.518;2022-12-08T02:46:54;99973.38;;;3.62;100.00
13695;BME280;6919;52.344;14.518;2022-12-08T02:49:29;99961.00;;;3.63;100.00
13695;BME280;6919;52.344;14.518;2022-12-08T02:52:41;99956.09;;;3.47;100.00
13695;BME280;6919;52.344;14.518;2022-12-08T02:55:23;99959.06;;;3.54;100.00
13695;BME280;6919;52.344;14.518;2022-12-08T02:58:33;99955.94;;;3.60;100.00
13695;BME280;6919;52.344;14.518;2022-12-08T03:01:32;99958.16;;;3.75;100.00
13695;BME280;6919;52.344;14.518;2022-12-08T03:04:14;99955.50;;;3.75;100.00
13695;BME280;6919;52.344;14.518;2022-12-08T03:06:51;99952.28;;;3.72;100.00
13695;BME280;6919;52.344;14.518;2022-12-08T03:09:34;99951.19;;;3.74;100.00
13695;BME280;6919;52.344;14.518;2022-12-08T03:12:12;99940.66;;;3.84;100.00
13695;BME280;6919;52.344;14.518;2022-12-08T03:14:49;99943.69;;;3.79;100.00
13695;BME280;6919;52.344;14.518;2022-12-08T03:17:24;99934.75;;;3.80;100.00
13695;BME280;6919;52.344;14.518;2022-12-08T03:19:56;99936.84;;;3.77;100.00
13695;BME280;6919;52.344;14.518;2022-12-08T03:22:28;99940.72;;;3.93;100.00
13695;BME280;6919;52.344;14.518;2022-12-08T03:24:57;99925.72;;;3.83;100.00
13695;BME280;6919;52.344;14.518;2022-12-08T03:27:28;99919.06;;;3.88;100.00
13695;BME280;6919;52.344;14.518;2022-12-08T03:30:00;99923.19;;;3.81;100.00
13695;BME280;6919;52.344;14.518;2022-12-08T03:32:36;99919.25;;;3.76;100.00
13695;BME280;6919;52.344;14.518;2022-12-08T03:35:10;99918.16;;;3.78;100.00
13695;BME280;6919;52.344;14.518;2022-12-08T03:37:42;99915.75;;;3.75;100.00
13695;BME280;6919;52.344;14.518;2022-12-08T03:40:16;99912.84;;;3.78;100.00
13695;BME280;6919;52.344;14.518;2022-12-08T03:42:45;99904.22;;;3.65;100.00
13695;BME280;6919;52.344;14.518;2022-12-08T03:45:13;99901.25;;;3.79;100.00
13695;BME280;6919;52.344;14.518;2022-12-08T03:47:41;99898.03;;;3.76;100.00
13695;BME280;6919;52.344;14.518;2022-12-08T03:50:10;99896.69;;;3.81;100.00
13695;BME280;6919;52.344;14.518;2022-12-08T03:52:38;99889.25;;;3.75;100.00
13695;BME280;6919;52.344;14.518;2022-12-08T03:55:09;99891.69;;;3.67;100.00
13695;BME280;6919;52.344;14.518;2022-12-08T03:57:37;99883.50;;;3.70;100.00
13695;BME280;6919;52.344;14.518;2022-12-08T04:00:11;99877.78;;;3.75;100.00
13695;BME280;6919;52.344;14.518;2022-12-08T04:02:41;99875.41;;;3.72;100.00
13695;BME280;6919;52.344;14.518;2022-12-08T04:05:10;99872.56;;;3.84;100.00
13695;BME280;6919;52.344;14.518;2022-12-08T04:07:38;99867.25;;;3.84;100.00
13695;BME280;6919;52.344;14.518;2022-12-08T04:10:09;99864.41;;;3.76;100.00
13695;BME280;6919;52.344;14.518;2022-12-08T04:12:37;99862.66;;;3.66;100.00
13695;BME280;6919;52.344;14.518;2022-12-08T04:15:07;99856.38;;;3.67;100.00
13695;BME280;6919;52.344;14.518;2022-12-08T04:17:36;99854.03;;;3.73;100.00
13695;BME280;6919;52.344;14.518;2022-12-08T04:20:05;99859.50;;;3.72;100.00
13695;BME280;6919;52.344;14.518;2022-12-08T04:22:34;99854.59;;;3.67;100.00
13695;BME280;6919;52.344;14.518;2022-12-08T04:25:02;99849.78;;;3.61;100.00
13695;BME280;6919;52.344;14.518;2022-12-08T04:27:32;99844.25;;;3.64;100.00
13695;BME280;6919;52.344;14.518;2022-12-08T04:30:00;99843.94;;;3.58;100.00
13695;BME280;6919;52.344;14.518;2022-12-08T04:32:29;99841.41;;;3.56;100.00
13695;BME280;6919;52.344;14.518;2022-12-08T04:34:57;99841.72;;;3.63;100.00
13695;BME280;6919;52.344;14.518;2022-12-08T04:37:27;99839.78;;;3.65;100.00
13695;BME280;6919;52.344;14.518;2022-12-08T04:39:56;99839.19;;;3.61;100.00
13695;BME280;6919;52.344;14.518;2022-12-08T04:42:24;99836.72;;;3.69;100.00
13695;BME280;6919;52.344;14.518;2022-12-08T04:44:53;99833.03;;;3.61;100.00
13695;BME280;6919;52.344;14.518;2022-12-08T04:47:22;99836.84;;;3.68;100.00
13695;BME280;6919;52.344;14.518;2022-12-08T04:49:50;99832.72;;;3.75;100.00
13695;BME280;6919;52.344;14.518;2022-12-08T04:52:18;99827.63;;;3.83;100.00
13695;BME280;6919;52.344;14.518;2022-12-08T04:54:46;99836.72;;;3.69;100.00
13695;BME280;6919;52.344;14.518;2022-12-08T04:57:15;99831.41;;;3.69;100.00
13695;BME280;6919;52.344;14.518;2022-12-08T04:59:43;99826.47;;;3.76;100.00
13695;BME280;6919;52.344;14.518;2022-12-08T05:02:13;99832.06;;;3.82;100.00
13695;BME280;6919;52.344;14.518;2022-12-08T05:04:41;99827.81;;;3.70;100.00
13695;BME280;6919;52.344;14.518;2022-12-08T05:07:10;99824.75;;;3.75;100.00
13695;BME280;6919;52.344;14.518;2022-12-08T05:09:38;99824.13;;;3.82;100.00
13695;BME280;6919;52.344;14.518;2022-12-08T05:12:06;99816.75;;;3.86;100.00
13695;BME280;6919;52.344;14.518;2022-12-08T05:14:35;99813.00;;;3.88;100.00
13695;BME280;6919;52.344;14.518;2022-12-08T05:17:03;99816.81;;;3.95;100.00
13695;BME280;6919;52.344;14.518;2022-12-08T05:19:37;99815.09;;;3.94;100.00
13695;BME280;6919;52.344;14.518;2022-12-08T05:22:05;99819.25;;;3.87;100.00
13695;BME280;6919;52.344;14.518;2022-12-08T05:24:33;99812.06;;;3.99;100.00
13695;BME280;6919;52.344;14.518;2022-12-08T05:27:02;99812.06;;;3.99;100.00
13695;BME280;6919;52.344;14.518;2022-12-08T05:29:30;99801.53;;;3.88;100.00
13695;BME280;6919;52.344;14.518;2022-12-08T05:31:59;99811.75;;;3.92;100.00
13695;BME280;6919;52.344;14.518;2022-12-08T05:34:27;99811.16;;;3.89;100.00
13695;BME280;6919;52.344;14.518;2022-12-08T05:36:56;99810.91;;;3.92;100.00
13695;BME280;6919;52.344;14.518;2022-12-08T05:39:25;99808.81;;;3.86;100.00
13695;BME280;6919;52.344;14.518;2022-12-08T05:41:53;99809.63;;;3.86;100.00
13695;BME280;6919;52.344;14.518;2022-12-08T05:44:21;99806.53;;;3.81;100.00
13695;BME280;6919;52.344;14.518;2022-12-08T05:46:49;99808.66;;;3.87;100.00
13695;BME280;6919;52.344;14.518;2022-12-08T05:49:18;99803.34;;;3.87;100.00
13695;BME280;6919;52.344;14.518;2022-12-08T05:51:46;99806.66;;;3.80;100.00
13695;BME280;6919;52.344;14.518;2022-12-08T05:54:15;99801.81;;;3.85;100.00
13695;BME280;6919;52.344;14.518;2022-12-08T05:56:44;99796.97;;;3.90;100.00
13695;BME280;6919;52.344;14.518;2022-12-08T05:59:12;99795.81;;;3.83;100.00
13695;BME280;6919;52.344;14.518;2022-12-08T06:01:40;99790.72;;;3.70;100.00
13695;BME280;6919;52.344;14.518;2022-12-08T06:04:09;99792.56;;;3.79;100.00
13695;BME280;6919;52.344;14.518;2022-12-08T06:06:37;99791.88;;;3.77;100.00
13695;BME280;6919;52.344;14.518;2022-12-08T06:09:06;99798.59;;;3.81;100.00
13695;BME280;6919;52.344;14.518;2022-12-08T06:11:36;99800.00;;;3.85;100.00
13695;BME280;6919;52.344;14.518;2022-12-08T06:14:09;99788.41;;;3.86;100.00
13695;BME280;6919;52.344;14.518;2022-12-08T06:16:38;99786.69;;;3.76;100.00
13695;BME280;6919;52.344;14.518;2022-12-08T06:19:06;99788.66;;;3.83;100.00
13695;BME280;6919;52.344;14.518;2022-12-08T06:21:35;99782.69;;;3.81;100.00
13695;BME280;6919;52.344;14.518;2022-12-08T06:24:03;99788.50;;;3.75;100.00
13695;BME280;6919;52.344;14.518;2022-12-08T06:26:31;99788.88;;;3.91;100.00
13695;BME280;6919;52.344;14.518;2022-12-08T06:29:03;99789.81;;;3.90;100.00
13695;BME280;6919;52.344;14.518;2022-12-08T06:31:31;99787.66;;;3.75;100.00
13695;BME280;6919;52.344;14.518;2022-12-08T06:34:00;99790.81;;;3.89;100.00
13695;BME280;6919;52.344;14.518;2022-12-08T06:36:28;99799.28;;;3.83;100.00
13695;BME280;6919;52.344;14.518;2022-12-08T06:38:57;99803.00;;;3.71;100.00
13695;BME280;6919;52.344;14.518;2022-12-08T06:41:25;99803.34;;;3.87;100.00
13695;BME280;6919;52.344;14.518;2022-12-08T06:43:55;99797.47;;;3.84;100.00
13695;BME280;6919;52.344;14.518;2022-12-08T06:46:25;99802.25;;;3.69;100.00
13695;BME280;6919;52.344;14.518;2022-12-08T06:48:53;99813.13;;;3.87;100.00
13695;BME280;6919;52.344;14.518;2022-12-08T06:51:21;99808.47;;;3.79;100.00
13695;BME280;6919;52.344;14.518;2022-12-08T06:53:49;99810.69;;;3.74;100.00
13695;BME280;6919;52.344;14.518;2022-12-08T06:56:18;99806.97;;;3.86;100.00
13695;BME280;6919;52.344;14.518;2022-12-08T06:58:48;99801.16;;;3.92;100.00
13695;BME280;6919;52.344;14.518;2022-12-08T07:01:19;99804.06;;;3.89;100.00
13695;BME280;6919;52.344;14.518;2022-12-08T07:03:49;99810.75;;;3.84;100.00
13695;BME280;6919;52.344;14.518;2022-12-08T07:06:21;99812.09;;;4.08;100.00
13695;BME280;6919;52.344;14.518;2022-12-08T07:08:50;99811.53;;;4.05;100.00
13695;BME280;6919;52.344;14.518;2022-12-08T07:11:18;99813.47;;;4.03;100.00
13695;BME280;6919;52.344;14.518;2022-12-08T07:13:48;99803.56;;;3.95;100.00
13695;BME280;6919;52.344;14.518;2022-12-08T07:16:17;99800.69;;;4.08;100.00
13695;BME280;6919;52.344;14.518;2022-12-08T07:18:45;99803.69;;;3.94;100.00
13695;BME280;6919;52.344;14.518;2022-12-08T07:21:16;99808.25;;;4.12;100.00
13695;BME280;6919;52.344;14.518;2022-12-08T07:23:46;99813.38;;;4.14;100.00
13695;BME280;6919;52.344;14.518;2022-12-08T07:26:23;99802.34;;;4.09;100.00
13695;BME280;6919;52.344;14.518;2022-12-08T07:28:52;99817.47;;;4.18;100.00
13695;BME280;6919;52.344;14.518;2022-12-08T07:31:23;99810.66;;;4.25;100.00
13695;BME280;6919;52.344;14.518;2022-12-08T07:33:52;99815.50;;;4.20;100.00
13695;BME280;6919;52.344;14.518;2022-12-08T07:36:22;99818.69;;;4.14;100.00
13695;BME280;6919;52.344;14.518;2022-12-08T07:38:51;99822.19;;;4.14;100.00
13695;BME280;6919;52.344;14.518;2022-12-08T07:41:22;99818.09;;;4.40;100.00
13695;BME280;6919;52.344;14.518;2022-12-08T07:43:52;99819.03;;;4.20;100.00
13695;BME280;6919;52.344;14.518;2022-12-08T07:46:22;99816.41;;;4.30;100.00
13695;BME280;6919;52.344;14.518;2022-12-08T07:48:54;99819.56;;;4.24;100.00
13695;BME280;6919;52.344;14.518;2022-12-08T07:51:24;99813.13;;;4.47;100.00
13695;BME280;6919;52.344;14.518;2022-12-08T07:53:52;99813.50;;;4.33;100.00
13695;BME280;6919;52.344;14.518;2022-12-08T07:56:22;99815.94;;;4.55;100.00
13695;BME280;6919;52.344;14.518;2022-12-08T07:58:50;99819.81;;;4.41;100.00
13695;BME280;6919;52.344;14.518;2022-12-08T08:01:22;99816.47;;;4.49;100.00
13695;BME280;6919;52.344;14.518;2022-12-08T08:03:51;99805.91;;;4.28;100.00
13695;BME280;6919;52.344;14.518;2022-12-08T08:06:19;99815.78;;;4.47;100.00
13695;BME280;6919;52.344;14.518;2022-12-08T08:08:49;99813.47;;;4.72;100.00
13695;BME280;6919;52.344;14.518;2022-12-08T08:11:17;99820.00;;;4.68;100.00
13695;BME280;6919;52.344;14.518;2022-12-08T08:13:47;99817.91;;;4.62;100.00
13695;BME280;6919;52.344;14.518;2022-12-08T08:16:16;99813.47;;;4.72;100.00
13695;BME280;6919;52.344;14.518;2022-12-08T08:18:46;99816.75;;;4.46;100.00
13695;BME280;6919;52.344;14.518;2022-12-08T08:21:17;99822.88;;;4.46;100.00
13695;BME280;6919;52.344;14.518;2022-12-08T08:24:07;99828.44;;;4.43;100.00
13695;BME280;6919;52.344;14.518;2022-12-08T08:26:36;99818.66;;;4.34;100.00
13695;BME280;6919;52.344;14.518;2022-12-08T08:29:04;99828.09;;;4.57;100.00
13695;BME280;6919;52.344;14.518;2022-12-08T08:31:32;99823.50;;;4.59;100.00
13695;BME280;6919;52.344;14.518;2022-12-08T08:34:01;99821.25;;;4.64;100.00
13695;BME280;6919;52.344;14.518;2022-12-08T08:36:32;99821.59;;;4.80;100.00
13695;BME280;6919;52.344;14.518;2022-12-08T08:39:01;99826.13;;;4.50;100.00
13695;BME280;6919;52.344;14.518;2022-12-08T08:41:30;99830.91;;;4.65;100.00
13695;BME280;6919;52.344;14.518;2022-12-08T08:43:58;99821.38;;;4.53;100.00
13695;BME280;6919;52.344;14.518;2022-12-08T08:46:27;99820.72;;;4.70;100.00
13695;BME280;6919;52.344;14.518;2022-12-08T08:48:55;99822.63;;;4.59;100.00
13695;BME280;6919;52.344;14.518;2022-12-08T08:51:23;99826.56;;;4.64;100.00
13695;BME280;6919;52.344;14.518;2022-12-08T08:53:52;99823.91;;;4.64;100.00
13695;BME280;6919;52.344;14.518;2022-12-08T08:56:20;99824.38;;;4.79;100.00
13695;BME280;6919;52.344;14.518;2022-12-08T08:58:52;99820.56;;;4.62;100.00
13695;BME280;6919;52.344;14.518;2022-12-08T09:01:23;99809.56;;;4.86;100.00
13695;BME280;6919;52.344;14.518;2022-12-08T09:03:52;99807.34;;;4.91;100.00
13695;BME280;6919;52.344;14.518;2022-12-08T09:06:22;99818.47;;;4.75;100.00
13695;BME280;6919;52.344;14.518;2022-12-08T09:08:50;99812.38;;;4.94;100.00
13695;BME280;6919;52.344;14.518;2022-12-08T09:11:19;99821.34;;;5.02;100.00
13695;BME280;6919;52.344;14.518;2022-12-08T09:13:51;99819.75;;;4.81;100.00
13695;BME280;6919;52.344;14.518;2022-12-08T09:16:21;99820.06;;;4.87;100.00
13695;BME280;6919;52.344;14.518;2022-12-08T09:18:50;99814.34;;;4.92;100.00
13695;BME280;6919;52.344;14.518;2022-12-08T09:21:23;99818.94;;;4.99;100.00
13695;BME280;6919;52.344;14.518;2022-12-08T09:23:54;99809.19;;;5.00;100.00
13695;BME280;6919;52.344;14.518;2022-12-08T09:26:27;99816.88;;;5.03;100.00
13695;BME280;6919;52.344;14.518;2022-12-08T09:28:56;99807.91;;;5.13;100.00
13695;BME280;6919;52.344;14.518;2022-12-08T09:31:25;99809.84;;;4.92;100.00
13695;BME280;6919;52.344;14.518;2022-12-08T09:33:53;99798.00;;;5.06;100.00
13695;BME280;6919;52.344;14.518;2022-12-08T09:36:21;99802.59;;;5.13;100.00
13695;BME280;6919;52.344;14.518;2022-12-08T09:38:50;99793.09;;;5.20;100.00
13695;BME280;6919;52.344;14.518;2022-12-08T09:41:29;99792.66;;;5.34;100.00
13695;BME280;6919;52.344;14.518;2022-12-08T09:44:49;99791.69;;;5.26;100.00
13695;BME280;6919;52.344;14.518;2022-12-08T09:47:25;99788.06;;;5.36;100.00
13695;BME280;6919;52.344;14.518;2022-12-08T09:50:10;99787.19;;;5.45;100.00
13695;BME280;6919;52.344;14.518;2022-12-08T09:52:44;99775.06;;;5.24;100.00
13695;BME280;6919;52.344;14.518;2022-12-08T09:55:22;99776.03;;;5.32;100.00
13695;BME280;6919;52.344;14.518;2022-12-08T09:57:59;99776.19;;;5.31;100.00
13695;BME280;6919;52.344;14.518;2022-12-08T10:00:31;99777.84;;;5.41;100.00
13695;BME280;6919;52.344;14.518;2022-12-08T10:02:59;99774.91;;;5.35;100.00
13695;BME280;6919;52.344;14.518;2022-12-08T10:05:33;99778.81;;;5.40;100.00
13695;BME280;6919;52.344;14.518;2022-12-08T10:08:11;99774.19;;;5.42;100.00
13695;BME280;6919;52.344;14.518;2022-12-08T10:10:47;99770.41;;;5.54;100.00
13695;BME280;6919;52.344;14.518;2022-12-08T10:13:32;99763.81;;;5.58;100.00
13695;BME280;6919;52.344;14.518;2022-12-08T10:16:14;99757.22;;;5.62;100.00
13695;BME280;6919;52.344;14.518;2022-12-08T10:19:01;99765.34;;;5.61;100.00
13695;BME280;6919;52.344;14.518;2022-12-08T10:21:39;99761.81;;;5.79;100.00
13695;BME280;6919;52.344;14.518;2022-12-08T10:24:17;99760.09;;;5.42;100.00
13695;BME280;6919;52.344;14.518;2022-12-08T10:26:49;99767.88;;;5.62;100.00
13695;BME280;6919;52.344;14.518;2022-12-08T10:29:17;99752.78;;;5.44;100.00
13695;BME280;6919;52.344;14.518;2022-12-08T10:31:47;99757.22;;;5.62;100.00
13695;BME280;6919;52.344;14.518;2022-12-08T10:34:19;99749.69;;;5.58;100.00
13695;BME280;6919;52.344;14.518;2022-12-08T10:36:52;99748.97;;;5.65;100.00
13695;BME280;6919;52.344;14.518;2022-12-08T10:39:37;99747.59;;;5.61;100.00
13695;BME280;6919;52.344;14.518;2022-12-08T10:42:16;99745.22;;;5.58;100.00
13695;BME280;6919;52.344;14.518;2022-12-08T10:44:58;99748.09;;;5.74;100.00
13695;BME280;6919;52.344;14.518;2022-12-08T10:47:34;99743.16;;;5.98;100.00
13695;BME280;6919;52.344;14.518;2022-12-08T10:50:26;99741.34;;;5.80;100.00
13695;BME280;6919;52.344;14.518;2022-12-08T10:52:58;99730.03;;;5.87;100.00
13695;BME280;6919;52.344;14.518;2022-12-08T10:55:28;99726.69;;;5.85;100.00
13695;BME280;6919;52.344;14.518;2022-12-08T10:57:56;99739.00;;;5.77;100.00
13695;BME280;6919;52.344;14.518;2022-12-08T11:00:26;99723.34;;;5.83;100.00
13695;BME280;6919;52.344;14.518;2022-12-08T11:03:00;99726.56;;;6.14;100.00
13695;BME280;6919;52.344;14.518;2022-12-08T11:05:32;99727.16;;;6.35;100.00
13695;BME280;6919;52.344;14.518;2022-12-08T11:08:03;99726.00;;;6.38;100.00
13695;BME280;6919;52.344;14.518;2022-12-08T11:10:36;99724.47;;;6.18;100.00
13695;BME280;6919;52.344;14.518;2022-12-08T11:13:19;99721.19;;;5.96;100.00
13695;BME280;6919;52.344;14.518;2022-12-08T11:15:49;99718.63;;;6.04;100.00
13695;BME280;6919;52.344;14.518;2022-12-08T11:18:27;99714.47;;;6.20;100.00
13695;BME280;6919;52.344;14.518;2022-12-08T11:21:01;99716.66;;;6.34;100.00
13695;BME280;6919;52.344;14.518;2022-12-08T11:23:35;99709.72;;;6.23;100.00
13695;BME280;6919;52.344;14.518;2022-12-08T11:26:13;99705.84;;;6.35;100.00
13695;BME280;6919;52.344;14.518;2022-12-08T11:28:44;99707.38;;;6.38;100.00
13695;BME280;6919;52.344;14.518;2022-12-08T11:31:26;99710.66;;;6.67;100.00
13695;BME280;6919;52.344;14.518;2022-12-08T11:33:57;99706.88;;;6.52;100.00
13695;BME280;6919;52.344;14.518;2022-12-08T11:36:28;99708.22;;;6.56;100.00
13695;BME280;6919;52.344;14.518;2022-12-08T11:39:01;99704.63;;;6.30;100.00
13695;BME280;6919;52.344;14.518;2022-12-08T11:41:34;99707.06;;;6.23;100.00
13695;BME280;6919;52.344;14.518;2022-12-08T11:44:12;99703.41;;;6.42;100.00
13695;BME280;6919;52.344;14.518;2022-12-08T11:46:53;99698.19;;;6.50;100.00
13695;BME280;6919;52.344;14.518;2022-12-08T11:49:32;99698.19;;;6.50;100.00
13695;BME280;6919;52.344;14.518;2022-12-08T11:52:08;99688.16;;;6.44;100.00
13695;BME280;6919;52.344;14.518;2022-12-08T11:54:47;99689.66;;;6.46;100.00
13695;BME280;6919;52.344;14.518;2022-12-08T11:57:19;99693.94;;;6.57;100.00
13695;BME280;6919;52.344;14.518;2022-12-08T11:59:53;99693.25;;;6.55;100.00
13695;BME280;6919;52.344;14.518;2022-12-08T12:02:25;99691.88;;;6.51;100.00
13695;BME280;6919;52.344;14.518;2022-12-08T12:05:04;99678.00;;;6.47;100.00
13695;BME280;6919;52.344;14.518;2022-12-08T12:08:01;99682.97;;;6.42;100.00
13695;BME280;6919;52.344;14.518;2022-12-08T12:10:53;99692.47;;;6.45;100.00
13695;BME280;6919;52.344;14.518;2022-12-08T12:13:54;99682.38;;;6.48;100.00
13695;BME280;6919;52.344;14.518;2022-12-08T12:16:58;99698.59;;;6.90;100.00
13695;BME280;6919;52.344;14.518;2022-12-08T12:19:34;99696.47;;;6.76;100.00
13695;BME280;6919;52.344;14.518;2022-12-08T12:22:14;99699.03;;;6.85;100.00
13695;BME280;6919;52.344;14.518;2022-12-08T12:24:48;99691.81;;;6.78;100.00
13695;BME280;6919;52.344;14.518;2022-12-08T12:27:25;99698.59;;;6.90;100.00
13695;BME280;6919;52.344;14.518;2022-12-08T12:29:59;99694.47;;;6.95;100.00
13695;BME280;6919;52.344;14.518;2022-12-08T12:32:43;99692.09;;;6.92;100.00
13695;BME280;6919;52.344;14.518;2022-12-08T12:35:19;99692.56;;;6.88;100.00
13695;BME280;6919;52.344;14.518;2022-12-08T12:37:59;99693.25;;;6.55;100.00
13695;BME280;6919;52.344;14.518;2022-12-08T12:40:38;99685.81;;;6.76;100.00
13695;BME280;6919;52.344;14.518;2022-12-08T12:43:23;99688.44;;;6.93;100.00
13695;BME280;6919;52.344;14.518;2022-12-08T12:46:38;99689.97;;;6.78;100.00
13695;BME280;6919;52.344;14.518;2022-12-08T12:49:52;99689.06;;;6.70;100.00
13695;BME280;6919;52.344;14.518;2022-12-08T12:52:47;99687.16;;;6.45;100.00
13695;BME280;6919;52.344;14.518;2022-12-08T12:55:23;99679.78;;;6.39;100.00
13695;BME280;6919;52.344;14.518;2022-12-08T12:57:54;99683.13;;;6.41;100.00
13695;BME280;6919;52.344;14.518;2022-12-08T13:00:26;99672.47;;;6.13;100.00
13695;BME280;6919;52.344;14.518;2022-12-08T13:02:56;99668.94;;;6.23;100.00
13695;BME280;6919;52.344;14.518;2022-12-08T13:05:28;99680.88;;;5.91;100.00
13695;BME280;6919;52.344;14.518;2022-12-08T13:08:00;99681.38;;;6.04;100.00
13695;BME280;6919;52.344;14.518;2022-12-08T13:10:33;99676.53;;;5.90;100.00
13695;BME280;6919;52.344;14.518;2022-12-08T13:13:15;99681.75;;;5.82;100.00
13695;BME280;6919;52.344;14.518;2022-12-08T13:15:50;99675.91;;;6.06;100.00
13695;BME280;6919;52.344;14.518;2022-12-08T13:18:24;99679.38;;;6.06;100.00
13695;BME280;6919;52.344;14.518;2022-12-08T13:21:01;99677.72;;;6.05;100.00
13695;BME280;6919;52.344;14.518;2022-12-08T13:23:45;99675.16;;;5.86;100.00
13695;BME280;6919;52.344;14.518;2022-12-08T13:26:21;99678.56;;;6.06;100.00
13695;BME280;6919;52.344;14.518;2022-12-08T13:29:16;99682.84;;;6.17;100.00
13695;BME280;6919;52.344;14.518;2022-12-08T13:31:48;99676.16;;;5.85;100.00